Time;durP1;ratioP1;P1;durP2;ratioP2;P2;SDS_P1;SDS_P2;PMS_P1;PMS_P2;Temp;Humidity;BMP_temperature;BMP_pressure;BME280_temperature;BME280_humidity;BME280_pressure;Samples;Min_cycle;Max_cycle;Signal;HPM_P1;HPM_P2
2023/12/29 00:00:27;;;;;;;6.57;4.15;;;;;;;;;;5142976;27;20050;-74
2023/12/29 00:02:54;;;;;;;5.80;3.40;;;;;;;;;;5142081;27;20046;-73
2023/12/29 00:05:20;;;;;;;7.72;4.38;;;;;;;;;;5141980;27;20413;-73
2023/12/29 00:07:47;;;;;;;8.00;4.35;;;;;;;;;;5141453;27;20066;-73
2023/12/29 00:10:14;;;;;;;7.50;3.53;;;;;;;;;;5141167;27;20092;-73
2023/12/29 00:12:41;;;;;;;5.53;3.38;;;;;;;;;;5141493;27;20039;-74
2023/12/29 00:15:10;;;;;;;6.13;3.60;;;;;;;;;;5123006;27;20081;-73
2023/12/29 00:17:37;;;;;;;8.25;3.80;;;;;;;;;;5139339;27;20276;-73
2023/12/29 00:20:10;;;;;;;6.97;4.07;;;;;;;;;;5141494;27;20327;-73
2023/12/29 00:22:40;;;;;;;6.82;3.92;;;;;;;;;;5141041;27;20042;-73
2023/12/29 00:25:08;;;;;;;6.05;3.60;;;;;;;;;;5140656;27;20537;-73
2023/12/29 00:27:36;;;;;;;5.97;3.75;;;;;;;;;;5140536;27;20423;-73
2023/12/29 00:30:03;;;;;;;7.40;4.22;;;;;;;;;;5141423;27;20092;-73
2023/12/29 00:32:30;;;;;;;7.82;4.38;;;;;;;;;;5141586;27;20193;-73
2023/12/29 00:34:57;;;;;;;7.22;4.13;;;;;;;;;;5141636;27;20047;-73
2023/12/29 00:37:24;;;;;;;7.45;4.47;;;;;;;;;;5141737;27;20047;-73
2023/12/29 00:39:51;;;;;;;6.90;4.40;;;;;;;;;;5141659;27;20047;-73
2023/12/29 00:42:17;;;;;;;6.82;4.50;;;;;;;;;;5141944;27;20308;-74
2023/12/29 00:44:44;;;;;;;6.43;4.13;;;;;;;;;;5141311;27;20110;-73
2023/12/29 00:47:11;;;;;;;7.20;4.47;;;;;;;;;;5140432;27;20046;-73
2023/12/29 00:49:41;;;;;;;5.70;4.18;;;;;;;;;;5140193;27;20042;-74
2023/12/29 00:52:08;;;;;;;10.65;5.93;;;;;;;;;;5140429;27;20231;-74
2023/12/29 00:54:34;;;;;;;8.32;4.57;;;;;;;;;;5140581;27;20051;-73
2023/12/29 00:57:01;;;;;;;7.60;4.00;;;;;;;;;;5141156;27;20115;-74
2023/12/29 00:59:28;;;;;;;8.07;4.05;;;;;;;;;;5140844;27;20343;-73
2023/12/29 01:01:54;;;;;;;5.47;3.85;;;;;;;;;;5141639;27;20501;-73
2023/12/29 01:04:21;;;;;;;5.38;3.60;;;;;;;;;;5140760;27;20480;-74
2023/12/29 01:06:48;;;;;;;6.28;3.90;;;;;;;;;;5141299;27;20043;-73
2023/12/29 01:09:15;;;;;;;6.47;3.72;;;;;;;;;;5140615;28;20051;-73
2023/12/29 01:11:41;;;;;;;6.55;4.30;;;;;;;;;;5141027;28;20244;-73
2023/12/29 01:14:09;;;;;;;7.07;4.43;;;;;;;;;;5141607;28;20059;-73
2023/12/29 01:16:36;;;;;;;7.85;3.97;;;;;;;;;;5140620;28;20075;-73
2023/12/29 01:19:02;;;;;;;7.00;3.70;;;;;;;;;;5141241;28;20452;-74
2023/12/29 01:21:33;;;;;;;7.55;4.22;;;;;;;;;;5140559;28;20368;-73
2023/12/29 01:24:01;;;;;;;7.22;4.25;;;;;;;;;;5140970;28;20039;-73
2023/12/29 01:26:27;;;;;;;7.95;4.78;;;;;;;;;;5140767;28;20043;-73
2023/12/29 01:28:54;;;;;;;8.80;5.38;;;;;;;;;;5141022;28;20047;-73
2023/12/29 01:31:22;;;;;;;8.25;5.22;;;;;;;;;;5140232;28;20064;-73
2023/12/29 01:33:48;;;;;;;9.10;5.85;;;;;;;;;;5140196;28;20359;-73
2023/12/29 01:36:19;;;;;;;10.57;5.47;;;;;;;;;;5140202;28;20100;-73
2023/12/29 01:38:51;;;;;;;7.78;5.18;;;;;;;;;;5140181;28;20051;-73
2023/12/29 01:41:20;;;;;;;10.40;6.43;;;;;;;;;;5140679;28;20356;-73
2023/12/29 01:43:56;;;;;;;9.80;5.57;;;;;;;;;;5140612;27;20628;-73
2023/12/29 01:46:28;;;;;;;11.07;5.97;;;;;;;;;;5145150;27;20043;-73
2023/12/29 01:48:57;;;;;;;9.63;5.82;;;;;;;;;;5145731;27;20050;-73
2023/12/29 01:51:25;;;;;;;9.35;5.55;;;;;;;;;;5145569;27;20057;-73
2023/12/29 01:53:54;;;;;;;10.00;5.38;;;;;;;;;;5145601;27;20047;-73
2023/12/29 01:56:21;;;;;;;7.93;5.05;;;;;;;;;;5145680;27;20043;-73
2023/12/29 01:58:49;;;;;;;9.77;5.25;;;;;;;;;;5144515;27;20084;-73
2023/12/29 02:01:17;;;;;;;8.70;5.28;;;;;;;;;;5143820;27;20236;-73
2023/12/29 02:03:45;;;;;;;9.18;5.07;;;;;;;;;;5144762;27;20046;-73
2023/12/29 02:06:13;;;;;;;7.72;5.05;;;;;;;;;;5143921;27;20058;-73
2023/12/29 02:08:42;;;;;;;10.63;6.13;;;;;;;;;;5144767;27;20115;-73
2023/12/29 02:11:10;;;;;;;7.53;4.72;;;;;;;;;;5143659;27;20327;-74
2023/12/29 02:13:36;;;;;;;7.75;4.78;;;;;;;;;;5144125;27;20054;-73
2023/12/29 02:16:30;;;;;;;7.82;4.68;;;;;;;;;;5144006;27;20047;-73
2023/12/29 02:18:58;;;;;;;9.40;5.07;;;;;;;;;;5143290;27;20043;-73
2023/12/29 02:21:25;;;;;;;10.63;5.78;;;;;;;;;;5143807;27;20227;-73
2023/12/29 02:23:52;;;;;;;9.95;5.60;;;;;;;;;;5143843;27;20073;-73
2023/12/29 02:26:22;;;;;;;8.38;5.35;;;;;;;;;;5143936;27;20103;-73
2023/12/29 02:28:59;;;;;;;10.73;5.43;;;;;;;;;;5142968;27;20043;-72
2023/12/29 02:31:30;;;;;;;8.85;5.32;;;;;;;;;;5143092;27;20042;-73
2023/12/29 02:33:57;;;;;;;;;;;;;;;;;;5143494;27;20242;-73
2023/12/29 02:36:25;;;;;;;8.10;4.68;;;;;;;;;;5143811;27;20004;-73
2023/12/29 02:38:52;;;;;;;8.13;5.20;;;;;;;;;;5143212;27;20299;-73
2023/12/29 02:41:18;;;;;;;9.25;5.00;;;;;;;;;;5143741;27;20076;-73
2023/12/29 02:43:45;;;;;;;8.68;4.97;;;;;;;;;;5143380;27;20047;-73
2023/12/29 02:46:12;;;;;;;8.77;4.88;;;;;;;;;;5144484;27;20050;-73
2023/12/29 02:48:38;;;;;;;9.30;5.63;;;;;;;;;;5144260;27;20096;-74
2023/12/29 02:51:07;;;;;;;9.55;5.43;;;;;;;;;;5143581;27;20043;-73
2023/12/29 02:53:34;;;;;;;7.72;5.00;;;;;;;;;;5143394;27;20043;-74
2023/12/29 02:56:01;;;;;;;8.13;5.03;;;;;;;;;;5143160;27;20042;-73
2023/12/29 02:58:28;;;;;;;10.55;5.53;;;;;;;;;;5142927;27;20062;-73
2023/12/29 03:00:55;;;;;;;8.52;5.53;;;;;;;;;;5142547;27;20043;-73
2023/12/29 03:03:21;;;;;;;9.02;5.65;;;;;;;;;;5143150;27;20463;-74
2023/12/29 03:05:48;;;;;;;10.00;5.85;;;;;;;;;;5142524;27;20039;-73
2023/12/29 03:08:15;;;;;;;8.10;5.55;;;;;;;;;;5143491;27;20070;-73
2023/12/29 03:10:41;;;;;;;9.00;5.22;;;;;;;;;;5142383;27;20043;-73
2023/12/29 03:13:08;;;;;;;8.82;5.38;;;;;;;;;;5142648;27;20475;-73
2023/12/29 03:15:35;;;;;;;8.30;5.07;;;;;;;;;;5142656;27;20067;-73
2023/12/29 03:18:02;;;;;;;8.75;5.55;;;;;;;;;;5142692;27;20069;-73
2023/12/29 03:20:29;;;;;;;7.60;4.43;;;;;;;;;;5142587;27;20071;-73
2023/12/29 03:22:56;;;;;;;7.38;4.57;;;;;;;;;;5142353;27;20231;-73
2023/12/29 03:25:23;;;;;;;6.68;4.32;;;;;;;;;;5142875;27;20078;-73
2023/12/29 03:27:50;;;;;;;7.93;4.30;;;;;;;;;;5142703;27;20084;-74
2023/12/29 03:30:17;;;;;;;8.00;4.90;;;;;;;;;;5142481;27;20111;-73
2023/12/29 03:32:44;;;;;;;7.78;4.70;;;;;;;;;;5142452;27;20050;-73
2023/12/29 03:35:10;;;;;;;8.20;4.60;;;;;;;;;;5142458;27;20115;-73
2023/12/29 03:37:37;;;;;;;7.43;4.50;;;;;;;;;;5142318;27;20043;-73
2023/12/29 03:40:05;;;;;;;8.88;4.57;;;;;;;;;;5142658;27;20157;-74
2023/12/29 03:42:32;;;;;;;7.30;4.78;;;;;;;;;;5142230;27;20046;-73
2023/12/29 03:44:59;;;;;;;6.80;4.30;;;;;;;;;;5142034;27;20051;-73
2023/12/29 03:47:25;;;;;;;7.68;4.68;;;;;;;;;;5141562;27;20079;-73
2023/12/29 03:49:52;;;;;;;9.23;5.00;;;;;;;;;;5142433;27;20042;-73
2023/12/29 03:52:19;;;;;;;7.80;4.53;;;;;;;;;;5142934;27;20084;-73
2023/12/29 03:54:45;;;;;;;8.18;4.75;;;;;;;;;;5142933;27;20058;-73
2023/12/29 03:57:12;;;;;;;6.90;4.60;;;;;;;;;;5143528;27;20043;-72
2023/12/29 03:59:40;;;;;;;7.43;4.78;;;;;;;;;;5143337;27;20096;-72
2023/12/29 04:02:06;;;;;;;7.65;4.65;;;;;;;;;;5143120;27;20049;-74
2023/12/29 04:04:36;;;;;;;8.13;4.93;;;;;;;;;;5141912;27;20095;-74
2023/12/29 04:07:03;;;;;;;6.93;4.60;;;;;;;;;;5142106;27;20529;-74
2023/12/29 04:09:30;;;;;;;7.38;4.75;;;;;;;;;;5141690;27;20092;-73
2023/12/29 04:11:57;;;;;;;6.60;4.43;;;;;;;;;;5141981;27;20072;-73
2023/12/29 04:14:24;;;;;;;7.18;4.40;;;;;;;;;;5142324;27;20042;-73
2023/12/29 04:16:50;;;;;;;8.07;4.55;;;;;;;;;;5141640;27;20517;-74
2023/12/29 04:19:17;;;;;;;8.85;5.20;;;;;;;;;;5141935;27;20082;-73
2023/12/29 04:21:44;;;;;;;10.93;5.70;;;;;;;;;;5141806;27;20066;-73
2023/12/29 04:24:11;;;;;;;7.82;4.72;;;;;;;;;;5141698;27;20055;-74
2023/12/29 04:26:38;;;;;;;8.45;5.22;;;;;;;;;;5142216;27;20047;-74
2023/12/29 04:29:04;;;;;;;8.55;5.25;;;;;;;;;;5141303;27;20047;-73
2023/12/29 04:31:31;;;;;;;7.88;4.45;;;;;;;;;;5141857;27;20047;-74
2023/12/29 04:33:58;;;;;;;7.53;4.53;;;;;;;;;;5141786;27;20043;-72
2023/12/29 04:36:24;;;;;;;9.13;4.70;;;;;;;;;;5141944;27;20051;-73
2023/12/29 04:38:51;;;;;;;7.88;4.30;;;;;;;;;;5141480;27;20053;-73
2023/12/29 04:41:18;;;;;;;7.05;4.32;;;;;;;;;;5123009;27;20044;-73
2023/12/29 04:43:45;;;;;;;7.18;4.20;;;;;;;;;;5140997;27;20053;-73
2023/12/29 04:46:11;;;;;;;6.53;3.85;;;;;;;;;;5142571;27;20047;-73
2023/12/29 04:48:38;;;;;;;6.00;4.00;;;;;;;;;;5142478;27;20043;-73
2023/12/29 04:51:05;;;;;;;7.10;4.30;;;;;;;;;;5141341;27;20047;-73
2023/12/29 04:53:32;;;;;;;6.15;4.00;;;;;;;;;;5122096;27;20043;-73
2023/12/29 04:55:58;;;;;;;6.38;3.85;;;;;;;;;;5141014;27;20062;-74
2023/12/29 04:58:25;;;;;;;6.82;4.47;;;;;;;;;;5140111;27;20047;-73
2023/12/29 05:00:52;;;;;;;8.73;4.63;;;;;;;;;;5140819;27;20053;-73
2023/12/29 05:03:18;;;;;;;8.20;5.28;;;;;;;;;;5141320;27;20047;-73
2023/12/29 05:05:45;;;;;;;8.90;5.57;;;;;;;;;;5141219;27;20043;-74
2023/12/29 05:08:12;;;;;;;7.38;4.90;;;;;;;;;;5123296;28;20042;-73
2023/12/29 05:10:39;;;;;;;7.35;4.60;;;;;;;;;;5140991;27;20053;-74
2023/12/29 05:13:05;;;;;;;7.53;4.30;;;;;;;;;;5140638;27;20043;-73
2023/12/29 05:15:32;;;;;;;7.68;4.72;;;;;;;;;;5141491;28;20123;-73
2023/12/29 05:17:59;;;;;;;8.45;4.60;;;;;;;;;;5140915;28;20114;-73
2023/12/29 05:20:26;;;;;;;7.05;4.53;;;;;;;;;;5143166;27;20047;-73
2023/12/29 05:22:53;;;;;;;8.05;4.25;;;;;;;;;;5145474;27;20343;-73
2023/12/29 05:25:22;;;;;;;7.18;4.55;;;;;;;;;;5145239;27;20084;-73
2023/12/29 05:27:48;;;;;;;7.53;4.60;;;;;;;;;;5145308;27;20043;-73
2023/12/29 05:30:15;;;;;;;7.57;4.40;;;;;;;;;;5145008;27;20047;-72
2023/12/29 05:32:42;;;;;;;7.65;5.13;;;;;;;;;;5145380;27;20050;-74
2023/12/29 05:35:09;;;;;;;8.20;5.30;;;;;;;;;;5144862;27;20051;-74
2023/12/29 05:37:36;;;;;;;13.68;7.40;;;;;;;;;;5145139;27;20039;-73
2023/12/29 05:40:03;;;;;;;14.02;7.47;;;;;;;;;;5145222;27;20047;-73
2023/12/29 05:42:30;;;;;;;14.43;8.32;;;;;;;;;;5144439;27;20557;-73
2023/12/29 05:44:57;;;;;;;15.52;7.85;;;;;;;;;;5145288;27;20043;-74
2023/12/29 05:47:24;;;;;;;12.93;7.80;;;;;;;;;;5145661;27;20081;-73
2023/12/29 05:49:50;;;;;;;12.98;7.88;;;;;;;;;;5145543;27;20043;-73
2023/12/29 05:52:17;;;;;;;15.68;8.55;;;;;;;;;;5145467;27;20044;-73
2023/12/29 05:54:44;;;;;;;12.90;7.55;;;;;;;;;;5145655;27;20108;-74
2023/12/29 05:57:12;;;;;;;14.88;7.65;;;;;;;;;;5145898;27;20047;-72
2023/12/29 05:59:39;;;;;;;14.18;8.00;;;;;;;;;;5145503;27;20123;-72
2023/12/29 06:02:06;;;;;;;10.68;7.07;;;;;;;;;;5127544;27;20050;-72
2023/12/29 06:04:32;;;;;;;12.10;6.32;;;;;;;;;;5145299;27;20055;-73
2023/12/29 06:07:00;;;;;;;10.20;6.05;;;;;;;;;;5145191;27;20110;-73
2023/12/29 06:09:26;;;;;;;8.82;5.60;;;;;;;;;;5144878;27;20043;-72
2023/12/29 06:11:55;;;;;;;9.50;6.05;;;;;;;;;;5145437;27;20050;-73
2023/12/29 06:14:22;;;;;;;10.57;6.00;;;;;;;;;;5145415;27;20067;-73
2023/12/29 06:16:48;;;;;;;10.85;6.35;;;;;;;;;;5145576;27;20110;-72
2023/12/29 06:19:15;;;;;;;8.60;5.47;;;;;;;;;;5145066;27;20043;-72
2023/12/29 06:21:43;;;;;;;9.45;5.47;;;;;;;;;;5144118;27;20053;-72
2023/12/29 06:24:11;;;;;;;7.97;5.00;;;;;;;;;;5144237;27;20062;-72
2023/12/29 06:26:43;;;;;;;6.82;4.43;;;;;;;;;;5143977;27;20376;-72
2023/12/29 06:29:10;;;;;;;7.78;4.43;;;;;;;;;;5144029;27;20116;-72
2023/12/29 06:31:41;;;;;;;6.88;4.53;;;;;;;;;;5142942;27;20051;-73
2023/12/29 06:34:09;;;;;;;6.75;4.28;;;;;;;;;;5143017;27;20051;-72
2023/12/29 06:36:36;;;;;;;7.07;4.18;;;;;;;;;;5143229;27;20074;-72
2023/12/29 06:39:03;;;;;;;6.43;3.90;;;;;;;;;;5143009;27;20396;-72
2023/12/29 06:41:29;;;;;;;6.88;3.63;;;;;;;;;;5142992;27;20047;-72
2023/12/29 06:43:56;;;;;;;7.07;3.88;;;;;;;;;;5143176;27;20038;-72
2023/12/29 06:46:23;;;;;;;5.75;4.10;;;;;;;;;;5143102;27;20070;-72
2023/12/29 06:48:50;;;;;;;7.55;4.03;;;;;;;;;;5142837;27;20232;-73
2023/12/29 06:51:18;;;;;;;6.97;4.20;;;;;;;;;;5142911;27;20050;-73
2023/12/29 06:53:47;;;;;;;7.65;4.25;;;;;;;;;;5142649;27;20047;-72
2023/12/29 06:56:17;;;;;;;7.53;4.43;;;;;;;;;;5143022;27;20047;-73
2023/12/29 06:58:44;;;;;;;8.70;5.07;;;;;;;;;;5143488;27;20039;-72
2023/12/29 07:01:11;;;;;;;7.05;4.50;;;;;;;;;;5124872;27;20049;-72
2023/12/29 07:03:39;;;;;;;6.47;4.07;;;;;;;;;;5144450;27;20088;-72
2023/12/29 07:06:05;;;;;;;7.20;4.25;;;;;;;;;;5144406;27;20043;-72
2023/12/29 07:08:32;;;;;;;6.53;4.15;;;;;;;;;;5144028;27;20074;-72
2023/12/29 07:10:59;;;;;;;7.55;4.57;;;;;;;;;;5143132;27;20124;-72
2023/12/29 07:13:25;;;;;;;6.80;4.15;;;;;;;;;;5142204;27;20043;-72
2023/12/29 07:15:54;;;;;;;6.55;4.13;;;;;;;;;;5142433;27;20047;-73
2023/12/29 07:18:20;;;;;;;6.88;4.35;;;;;;;;;;5143135;27;20106;-72
2023/12/29 07:20:47;;;;;;;7.18;4.38;;;;;;;;;;5142530;27;20053;-72
2023/12/29 07:23:14;;;;;;;6.90;4.22;;;;;;;;;;5142462;27;20167;-73
2023/12/29 07:25:40;;;;;;;9.23;5.20;;;;;;;;;;5141978;27;20352;-73
2023/12/29 07:28:07;;;;;;;7.55;4.97;;;;;;;;;;5142463;27;20039;-72
2023/12/29 07:30:34;;;;;;;9.15;4.75;;;;;;;;;;5142441;27;20203;-72
2023/12/29 07:33:02;;;;;;;8.02;4.47;;;;;;;;;;5123943;27;20050;-73
2023/12/29 07:35:29;;;;;;;6.97;4.45;;;;;;;;;;5141883;27;20194;-73
2023/12/29 07:37:56;;;;;;;7.40;4.90;;;;;;;;;;5142057;27;20043;-73
2023/12/29 07:40:23;;;;;;;8.18;4.47;;;;;;;;;;5124141;27;20043;-73
2023/12/29 07:42:50;;;;;;;6.88;4.28;;;;;;;;;;5141447;27;20051;-73
2023/12/29 07:45:17;;;;;;;7.10;4.57;;;;;;;;;;5142599;27;20088;-73
2023/12/29 07:47:44;;;;;;;5.90;3.97;;;;;;;;;;5141665;27;20119;-73
2023/12/29 07:50:11;;;;;;;5.65;3.53;;;;;;;;;;5142551;27;20372;-73
2023/12/29 07:52:37;;;;;;;7.22;4.38;;;;;;;;;;5142550;27;20043;-73
2023/12/29 07:55:04;;;;;;;6.78;4.43;;;;;;;;;;5142636;27;20110;-73
2023/12/29 07:57:31;;;;;;;7.20;4.40;;;;;;;;;;5142283;27;20262;-73
2023/12/29 07:59:58;;;;;;;7.38;4.25;;;;;;;;;;5141864;27;20163;-73
2023/12/29 08:02:25;;;;;;;6.45;4.30;;;;;;;;;;5142907;27;20043;-73
2023/12/29 08:04:51;;;;;;;7.40;4.80;;;;;;;;;;5143146;27;20050;-73
2023/12/29 08:07:18;;;;;;;10.23;5.03;;;;;;;;;;5143317;27;20042;-73
2023/12/29 08:09:45;;;;;;;9.82;5.00;;;;;;;;;;5142070;27;20038;-73
2023/12/29 08:12:13;;;;;;;9.57;5.65;;;;;;;;;;5142038;27;20100;-73
2023/12/29 08:14:40;;;;;;;8.80;5.63;;;;;;;;;;5141426;27;20328;-75
2023/12/29 08:17:07;;;;;;;11.10;6.05;;;;;;;;;;5143190;27;20092;-74
2023/12/29 08:19:34;;;;;;;9.50;5.28;;;;;;;;;;5142731;27;20302;-75
2023/12/29 08:22:01;;;;;;;9.52;5.63;;;;;;;;;;5141658;27;20372;-74
2023/12/29 08:24:28;;;;;;;8.52;5.30;;;;;;;;;;5141990;27;20099;-74
2023/12/29 08:26:54;;;;;;;8.40;5.07;;;;;;;;;;5141410;27;20354;-75
2023/12/29 08:29:21;;;;;;;8.65;4.90;;;;;;;;;;5141723;27;20339;-75
2023/12/29 08:31:48;;;;;;;10.68;5.57;;;;;;;;;;5141141;27;20418;-75
2023/12/29 08:34:15;;;;;;;7.60;4.93;;;;;;;;;;5141488;27;20062;-73
2023/12/29 08:36:42;;;;;;;10.60;5.95;;;;;;;;;;5133007;27;20050;-75
2023/12/29 08:39:09;;;;;;;10.68;6.30;;;;;;;;;;5129284;27;20344;-75
2023/12/29 08:41:36;;;;;;;9.88;6.43;;;;;;;;;;5133105;27;20047;-74
2023/12/29 08:44:03;;;;;;;11.00;6.15;;;;;;;;;;5141395;27;20043;-75
2023/12/29 08:46:30;;;;;;;10.55;5.88;;;;;;;;;;5142477;27;20331;-73
2023/12/29 08:48:56;;;;;;;10.27;5.88;;;;;;;;;;5124120;27;20050;-76
2023/12/29 08:51:23;;;;;;;9.60;6.07;;;;;;;;;;5142407;27;20074;-74
2023/12/29 08:53:50;;;;;;;11.40;6.50;;;;;;;;;;5133333;27;20051;-74
2023/12/29 08:56:17;;;;;;;10.88;6.43;;;;;;;;;;5121808;28;20051;-74
2023/12/29 08:58:43;;;;;;;11.38;6.53;;;;;;;;;;5121567;28;20050;-74
2023/12/29 09:01:10;;;;;;;10.20;6.07;;;;;;;;;;5121537;28;20044;-73
2023/12/29 09:03:37;;;;;;;10.05;5.57;;;;;;;;;;5120891;28;20071;-73
2023/12/29 09:06:08;;;;;;;8.98;5.30;;;;;;;;;;5121121;28;20050;-73
2023/12/29 09:08:35;;;;;;;8.63;5.75;;;;;;;;;;5102659;28;20050;-74
2023/12/29 09:11:02;;;;;;;10.93;5.85;;;;;;;;;;5130295;27;20043;-74
2023/12/29 09:13:29;;;;;;;9.75;6.13;;;;;;;;;;5140615;27;20088;-74
2023/12/29 09:15:55;;;;;;;11.20;6.53;;;;;;;;;;5140402;27;20047;-73
2023/12/29 09:18:22;;;;;;;10.32;6.80;;;;;;;;;;5140653;28;20054;-75
2023/12/29 09:20:49;;;;;;;9.63;6.00;;;;;;;;;;5141282;27;20217;-74
2023/12/29 09:23:16;;;;;;;11.07;6.25;;;;;;;;;;5141508;28;20289;-74
2023/12/29 09:25:43;;;;;;;11.23;6.70;;;;;;;;;;5141515;28;20051;-74
2023/12/29 09:28:10;;;;;;;11.95;6.03;;;;;;;;;;5141772;27;20299;-75
2023/12/29 09:30:37;;;;;;;9.63;6.43;;;;;;;;;;5137273;28;20479;-74
2023/12/29 09:33:04;;;;;;;11.82;6.72;;;;;;;;;;5132488;27;20081;-73
2023/12/29 09:35:31;;;;;;;13.45;7.65;;;;;;;;;;5136517;27;20331;-74
2023/12/29 09:38:01;;;;;;;12.95;7.53;;;;;;;;;;5139159;28;20071;-74
2023/12/29 09:40:28;;;;;;;12.80;6.85;;;;;;;;;;5139992;28;20124;-74
2023/12/29 09:42:55;;;;;;;11.02;6.93;;;;;;;;;;5139312;28;20421;-71
2023/12/29 09:45:26;;;;;;;12.43;7.43;;;;;;;;;;5138892;28;20422;-69
2023/12/29 09:47:55;;;;;;;12.60;6.32;;;;;;;;;;5138401;28;20050;-73
2023/12/29 09:50:23;;;;;;;10.55;6.68;;;;;;;;;;5134278;28;20039;-75
2023/12/29 09:52:50;;;;;;;10.50;6.20;;;;;;;;;;5134260;28;20062;-75
2023/12/29 09:55:17;;;;;;;13.82;6.85;;;;;;;;;;5124745;28;20054;-74
2023/12/29 09:57:46;;;;;;;10.80;6.00;;;;;;;;;;5121002;28;20047;-74
2023/12/29 10:00:15;;;;;;;11.45;6.80;;;;;;;;;;5140700;28;20047;-75
2023/12/29 10:02:42;;;;;;;10.77;6.63;;;;;;;;;;5140363;28;20043;-74
2023/12/29 10:05:09;;;;;;;11.63;6.82;;;;;;;;;;5141790;27;20078;-75
2023/12/29 10:07:40;;;;;;;12.27;7.35;;;;;;;;;;5131864;27;20051;-74
2023/12/29 10:10:07;;;;;;;10.68;6.63;;;;;;;;;;5122790;28;20262;-75
2023/12/29 10:12:36;;;;;;;13.40;6.85;;;;;;;;;;5122605;28;20340;-75
2023/12/29 10:15:05;;;;;;;11.88;6.70;;;;;;;;;;5122907;28;20297;-74
2023/12/29 10:17:51;;;;;;;12.02;7.10;;;;;;;;;;5122708;28;20047;-75
2023/12/29 10:20:42;;;;;;;13.00;7.25;;;;;;;;;;5123010;28;20048;-75
2023/12/29 10:23:21;;;;;;;;;;;;;;;;;;5124056;28;20303;-75
2023/12/29 10:25:49;;;;;;;9.60;6.28;;;;;;;;;;5124124;28;19915;-74
2023/12/29 10:28:17;;;;;;;11.52;7.03;;;;;;;;;;5124511;28;20127;-74
2023/12/29 10:30:44;;;;;;;11.55;6.88;;;;;;;;;;5124270;28;20071;-76
2023/12/29 10:33:21;;;;;;;11.70;6.65;;;;;;;;;;5124226;28;20373;-73
2023/12/29 10:36:05;;;;;;;12.07;7.35;;;;;;;;;;5127553;27;20058;-74
2023/12/29 10:38:32;;;;;;;12.48;7.43;;;;;;;;;;5144245;27;20043;-74
2023/12/29 10:41:18;;;;;;;13.00;7.65;;;;;;;;;;5144401;27;20043;-74
2023/12/29 10:43:54;;;;;;;11.63;6.90;;;;;;;;;;5143213;27;20103;-74
2023/12/29 10:46:21;;;;;;;12.57;7.35;;;;;;;;;;5144324;27;20122;-78
2023/12/29 10:48:48;;;;;;;12.90;7.63;;;;;;;;;;5144335;27;20049;-74
2023/12/29 10:51:15;;;;;;;12.10;7.45;;;;;;;;;;5144566;27;20127;-76
2023/12/29 10:53:55;;;;;;;13.15;7.32;;;;;;;;;;5144208;27;20397;-75
2023/12/29 10:56:22;;;;;;;12.30;7.47;;;;;;;;;;5126544;27;20039;-74
2023/12/29 10:59:05;;;;;;;12.35;7.10;;;;;;;;;;5144738;27;20050;-75
2023/12/29 11:01:34;;;;;;;12.27;7.32;;;;;;;;;;5144471;27;20493;-74
2023/12/29 11:04:06;;;;;;;10.80;7.07;;;;;;;;;;5144665;27;20111;-75
2023/12/29 11:06:46;;;;;;;11.30;6.80;;;;;;;;;;5144451;27;20118;-74
2023/12/29 11:09:14;;;;;;;11.90;6.85;;;;;;;;;;5144282;27;20066;-75
2023/12/29 11:11:42;;;;;;;14.75;7.53;;;;;;;;;;5144117;27;20043;-78
2023/12/29 11:14:11;;;;;;;11.20;7.05;;;;;;;;;;5138737;27;20074;-74
2023/12/29 11:16:39;;;;;;;14.40;8.02;;;;;;;;;;5135014;27;20126;-75
2023/12/29 11:19:09;;;;;;;11.98;7.57;;;;;;;;;;5132359;27;20043;-75
2023/12/29 11:21:37;;;;;;;12.52;7.43;;;;;;;;;;5123544;28;20081;-75
2023/12/29 11:24:04;;;;;;;12.98;8.15;;;;;;;;;;5139778;27;20088;-74
2023/12/29 11:26:31;;;;;;;14.85;8.10;;;;;;;;;;5143858;27;20110;-74
2023/12/29 11:28:58;;;;;;;12.25;7.22;;;;;;;;;;5141482;27;20107;-71
2023/12/29 11:31:25;;;;;;;24.88;10.73;;;;;;;;;;5140700;27;20053;-71
2023/12/29 11:34:06;;;;;;;17.17;9.10;;;;;;;;;;5142170;27;20043;-72
2023/12/29 11:36:35;;;;;;;12.82;8.10;;;;;;;;;;5140460;27;20055;-72
2023/12/29 11:39:11;;;;;;;14.57;8.07;;;;;;;;;;5137089;27;20077;-71
2023/12/29 11:41:46;;;;;;;9.40;6.63;;;;;;;;;;5131729;27;20110;-72
2023/12/29 11:44:25;;;;;;;10.77;5.88;;;;;;;;;;5133907;27;20231;-68
2023/12/29 11:46:52;;;;;;;9.15;5.45;;;;;;;;;;5143306;27;20043;-71
2023/12/29 11:49:19;;;;;;;10.77;5.75;;;;;;;;;;5124162;27;20050;-71
2023/12/29 11:51:50;;;;;;;8.00;5.13;;;;;;;;;;5120615;28;20052;-69
2023/12/29 11:54:25;;;;;;;6.47;4.55;;;;;;;;;;5120580;28;20039;-73
2023/12/29 11:56:54;;;;;;;7.60;4.40;;;;;;;;;;5120619;28;20069;-74
2023/12/29 11:59:27;;;;;;;5.80;4.43;;;;;;;;;;5120977;28;20111;-74
2023/12/29 12:01:55;;;;;;;7.32;4.35;;;;;;;;;;5121043;28;20617;-73
2023/12/29 12:04:36;;;;;;;5.93;3.95;;;;;;;;;;5121428;28;20096;-73
2023/12/29 12:07:05;;;;;;;;;;;;;;;;;;5122504;28;20054;-73
2023/12/29 12:09:32;;;;;;;5.70;3.63;;;;;;;;;;5122234;28;19978;-73
2023/12/29 12:11:59;;;;;;;6.50;3.70;;;;;;;;;;5122318;28;20107;-72
2023/12/29 12:14:49;;;;;;;6.38;3.75;;;;;;;;;;5121823;28;20377;-70
2023/12/29 12:17:30;;;;;;;4.80;3.67;;;;;;;;;;5121954;28;20058;-70
2023/12/29 12:20:02;;;;;;;7.93;3.88;;;;;;;;;;5122218;28;20044;-71
2023/12/29 12:22:32;;;;;;;7.15;3.88;;;;;;;;;;5122182;28;20107;-71
2023/12/29 12:25:04;;;;;;;6.60;3.47;;;;;;;;;;5121335;28;20051;-69
2023/12/29 12:27:31;;;;;;;5.00;3.30;;;;;;;;;;5121132;27;20039;-70
2023/12/29 12:29:59;;;;;;;4.63;3.40;;;;;;;;;;5119587;28;20039;-72
2023/12/29 12:32:27;;;;;;;6.38;3.40;;;;;;;;;;5100707;28;20039;-71
2023/12/29 12:34:57;;;;;;;7.45;3.15;;;;;;;;;;5118298;28;20466;-75
2023/12/29 12:37:28;;;;;;;;;;;;;;;;;;5112888;27;20043;-72
2023/12/29 12:39:55;;;;;;;4.75;3.13;;;;;;;;;;5140033;27;19978;-72
2023/12/29 12:42:23;;;;;;;6.38;3.13;;;;;;;;;;5141483;27;20047;-71
2023/12/29 12:45:17;;;;;;;5.03;3.35;;;;;;;;;;5141657;27;20070;-69
2023/12/29 12:47:50;;;;;;;4.65;3.25;;;;;;;;;;5142107;27;20043;-70
2023/12/29 12:50:17;;;;;;;4.30;3.00;;;;;;;;;;5142293;27;20110;-73
2023/12/29 12:52:44;;;;;;;5.18;3.35;;;;;;;;;;5141916;27;20485;-70
2023/12/29 12:55:11;;;;;;;4.82;3.00;;;;;;;;;;5141374;27;20049;-70
2023/12/29 12:57:38;;;;;;;4.57;3.25;;;;;;;;;;5142038;27;20047;-71
2023/12/29 13:00:08;;;;;;;4.38;3.03;;;;;;;;;;5141877;27;20351;-70
2023/12/29 13:02:35;;;;;;;5.13;2.95;;;;;;;;;;5140938;27;20071;-69
2023/12/29 13:05:07;;;;;;;5.70;3.20;;;;;;;;;;5140435;27;20464;-70
2023/12/29 13:07:35;;;;;;;4.75;2.85;;;;;;;;;;5140268;27;20075;-70
2023/12/29 13:10:03;;;;;;;5.25;3.45;;;;;;;;;;5140150;27;20110;-71
2023/12/29 13:12:30;;;;;;;5.35;3.53;;;;;;;;;;5141330;27;20043;-71
2023/12/29 13:15:08;;;;;;;6.45;3.20;;;;;;;;;;5140178;27;20050;-71
2023/12/29 13:17:35;;;;;;;6.05;3.65;;;;;;;;;;5140048;27;20069;-70
2023/12/29 13:20:04;;;;;;;7.35;3.60;;;;;;;;;;5140430;28;20043;-70
2023/12/29 13:22:32;;;;;;;5.53;3.70;;;;;;;;;;5141983;28;20108;-71
2023/12/29 13:24:59;;;;;;;5.15;3.03;;;;;;;;;;5141285;28;20362;-71
2023/12/29 13:27:26;;;;;;;5.43;3.72;;;;;;;;;;5141599;28;20047;-70
2023/12/29 13:29:53;;;;;;;6.70;3.67;;;;;;;;;;5141459;28;20485;-71
2023/12/29 13:32:26;;;;;;;6.07;3.80;;;;;;;;;;5141698;28;20043;-70
2023/12/29 13:35:25;;;;;;;6.30;3.78;;;;;;;;;;5141790;28;20096;-70
2023/12/29 13:38:21;;;;;;;4.65;3.30;;;;;;;;;;5141431;27;20054;-70
2023/12/29 13:41:11;;;;;;;5.47;3.30;;;;;;;;;;5139099;27;20047;-70
2023/12/29 13:43:42;;;;;;;5.05;3.53;;;;;;;;;;5145798;27;20140;-71
2023/12/29 13:46:11;;;;;;;6.60;3.70;;;;;;;;;;5144431;27;20430;-69
2023/12/29 13:48:41;;;;;;;5.57;3.70;;;;;;;;;;5144142;27;20200;-71
2023/12/29 13:51:08;;;;;;;4.68;3.33;;;;;;;;;;5144154;27;20083;-71
2023/12/29 13:53:35;;;;;;;6.13;4.00;;;;;;;;;;5144483;27;20306;-71
2023/12/29 13:56:09;;;;;;;7.55;3.65;;;;;;;;;;5145103;27;20039;-71
2023/12/29 13:58:36;;;;;;;7.57;3.90;;;;;;;;;;5145232;27;20050;-71
2023/12/29 14:01:10;;;;;;;5.60;3.92;;;;;;;;;;5145613;27;20105;-70
2023/12/29 14:03:47;;;;;;;6.88;3.70;;;;;;;;;;5145076;27;20375;-70
2023/12/29 14:06:21;;;;;;;6.32;3.55;;;;;;;;;;5145004;27;20043;-71
2023/12/29 14:08:48;;;;;;;6.68;3.38;;;;;;;;;;5144882;27;20100;-71
2023/12/29 14:11:15;;;;;;;7.78;3.95;;;;;;;;;;5145201;27;20106;-71
2023/12/29 14:13:45;;;;;;;5.10;3.22;;;;;;;;;;5144691;27;20122;-71
2023/12/29 14:16:12;;;;;;;5.00;3.28;;;;;;;;;;5143631;27;20058;-71
2023/12/29 14:18:44;;;;;;;4.82;3.20;;;;;;;;;;5143763;27;20050;-70
2023/12/29 14:21:30;;;;;;;6.25;3.15;;;;;;;;;;5143741;27;20055;-71
2023/12/29 14:24:13;;;;;;;4.95;3.10;;;;;;;;;;5125445;27;20380;-70
2023/12/29 14:26:52;;;;;;;5.63;2.80;;;;;;;;;;5143689;27;20057;-71
2023/12/29 14:29:20;;;;;;;7.05;3.78;;;;;;;;;;5144359;27;20089;-71
2023/12/29 14:31:48;;;;;;;5.35;3.03;;;;;;;;;;5144782;27;20346;-71
2023/12/29 14:34:14;;;;;;;5.40;3.40;;;;;;;;;;5145031;27;20043;-71
2023/12/29 14:36:42;;;;;;;6.18;3.58;;;;;;;;;;5144554;27;20316;-70
2023/12/29 14:39:10;;;;;;;4.88;3.10;;;;;;;;;;5144311;27;20075;-69
2023/12/29 14:41:37;;;;;;;5.25;3.30;;;;;;;;;;5144630;27;20107;-70
2023/12/29 14:44:04;;;;;;;5.63;3.58;;;;;;;;;;5144253;27;20050;-71
2023/12/29 14:46:30;;;;;;;4.55;2.88;;;;;;;;;;5143553;27;20346;-70
2023/12/29 14:49:00;;;;;;;4.68;2.95;;;;;;;;;;5143628;27;20047;-71